Time;durP1;ratioP1;P1;durP2;ratioP2;P2;SDS_P1;SDS_P2;PMS_P1;PMS_P2;Temp;Humidity;BMP_temperature;BMP_pressure;BME280_temperature;BME280_humidity;BME280_pressure;Samples;Min_cycle;Max_cycle;Signal;HPM_P1;HPM_P2
2021/07/27 00:01:12;;;;;;;1.20;0.70;;;25.10;62.00;;;;;;5062211;28;20387;-60
2021/07/27 00:03:39;;;;;;;1.30;0.88;;;25.10;62.00;;;;;;5046728;28;21019;-61
2021/07/27 00:06:06;;;;;;;1.20;0.80;;;25.10;62.00;;;;;;5062365;28;21289;-61
2021/07/27 00:08:34;;;;;;;1.38;0.85;;;25.10;62.00;;;;;;5062341;28;20415;-60
2021/07/27 00:11:01;;;;;;;1.50;0.80;;;25.10;62.00;;;;;;5062355;28;20429;-60
2021/07/27 00:13:26;;;;;;;1.30;0.70;;;25.10;62.00;;;;;;5061954;28;20470;-61
2021/07/27 00:15:52;;;;;;;1.02;0.70;;;25.00;62.00;;;;;;5061988;28;20474;-60
2021/07/27 00:18:18;;;;;;;1.30;0.70;;;25.00;61.90;;;;;;5061717;28;20419;-60
2021/07/27 00:20:45;;;;;;;1.20;0.70;;;25.00;62.00;;;;;;5062277;28;20498;-60
2021/07/27 00:23:10;;;;;;;1.50;1.00;;;25.00;62.00;;;;;;5061637;28;20379;-60
2021/07/27 00:25:38;;;;;;;1.25;0.75;;;25.00;62.00;;;;;;5061556;28;20410;-60
2021/07/27 00:28:04;;;;;;;1.50;0.80;;;25.00;62.00;;;;;;5062455;28;20384;-61
2021/07/27 00:30:30;;;;;;;2.00;0.70;;;25.00;62.00;;;;;;5061802;28;20879;-61
2021/07/27 00:32:55;;;;;;;1.60;0.80;;;25.00;62.00;;;;;;5062209;28;20453;-61
2021/07/27 00:35:22;;;;;;;1.20;0.70;;;25.00;62.10;;;;;;5061687;28;20411;-60
2021/07/27 00:38:07;;;;;;;1.13;0.80;;;25.00;62.00;;;;;;5061550;28;20383;-60
2021/07/27 00:40:33;;;;;;;1.27;0.90;;;25.00;62.10;;;;;;5062065;28;20848;-61
2021/07/27 00:43:05;;;;;;;1.23;0.80;;;25.00;62.00;;;;;;5061867;28;20384;-60
2021/07/27 00:45:31;;;;;;;1.40;0.80;;;25.00;62.10;;;;;;5061222;28;20387;-61
2021/07/27 00:47:57;;;;;;;1.25;0.70;;;25.00;62.10;;;;;;5051855;28;20644;-60
2021/07/27 00:50:23;;;;;;;1.00;0.60;;;25.00;62.10;;;;;;5062061;28;20395;-60
2021/07/27 00:52:50;;;;;;;1.20;0.85;;;25.00;62.10;;;;;;5065693;28;20398;-60
2021/07/27 00:55:16;;;;;;;1.25;0.70;;;25.00;62.10;;;;;;5065505;28;20388;-61
2021/07/27 00:57:41;;;;;;;1.07;0.70;;;25.00;62.10;;;;;;5065328;28;20380;-61
2021/07/27 01:00:08;;;;;;;1.05;0.68;;;24.90;62.00;;;;;;5065789;28;20779;-61
2021/07/27 01:02:33;;;;;;;1.02;0.70;;;25.00;62.10;;;;;;5065424;28;20372;-60
2021/07/27 01:04:59;;;;;;;1.07;0.70;;;25.00;62.10;;;;;;5065704;28;20399;-60
2021/07/27 01:07:25;;;;;;;1.45;0.70;;;24.90;62.00;;;;;;5065800;28;20388;-60
2021/07/27 01:09:51;;;;;;;1.30;0.70;;;24.90;62.10;;;;;;5059121;28;20396;-60
2021/07/27 01:12:18;;;;;;;0.90;0.60;;;25.00;62.10;;;;;;5065828;28;20387;-60
2021/07/27 01:14:43;;;;;;;1.00;0.70;;;24.90;62.10;;;;;;5057263;28;20399;-61
2021/07/27 01:17:09;;;;;;;1.40;0.80;;;24.90;62.10;;;;;;5065349;28;20414;-60
2021/07/27 01:43:48;;;;;;;1.42;0.80;;;24.80;62.10;;;;;;5064979;28;20380;-60
2021/07/27 01:46:17;;;;;;;1.20;0.75;;;24.80;62.10;;;;;;5064859;28;20482;-60
2021/07/27 01:48:44;;;;;;;0.93;0.52;;;24.80;62.10;;;;;;5064969;28;20388;-60
2021/07/27 01:51:12;;;;;;;1.17;0.77;;;24.80;62.10;;;;;;5065118;28;20483;-61
2021/07/27 01:53:54;;;;;;;1.05;0.70;;;24.80;62.20;;;;;;5064345;28;20984;-61
2021/07/27 01:56:21;;;;;;;1.20;0.60;;;24.80;62.20;;;;;;5064636;28;20472;-61
2021/07/27 01:58:51;;;;;;;1.85;0.70;;;24.80;62.10;;;;;;5064483;28;21368;-61
2021/07/27 02:01:20;;;;;;;1.33;0.70;;;24.80;62.20;;;;;;5064752;28;20437;-61
2021/07/27 02:03:45;;;;;;;1.23;0.70;;;24.80;62.10;;;;;;5063083;28;20845;-60
2021/07/27 02:06:11;;;;;;;1.50;0.70;;;24.80;62.10;;;;;;5064851;28;20394;-60
2021/07/27 02:08:37;;;;;;;1.50;0.70;;;24.80;62.20;;;;;;5064032;28;20732;-60
2021/07/27 02:11:05;;;;;;;1.00;0.60;;;24.80;62.20;;;;;;5047515;28;20479;-60
2021/07/27 02:13:33;;;;;;;1.30;0.60;;;24.80;62.20;;;;;;5064371;28;20401;-60
2021/07/27 02:15:59;;;;;;;1.00;0.70;;;24.80;62.20;;;;;;5064375;28;20390;-60
2021/07/27 02:18:26;;;;;;;1.60;0.70;;;24.80;62.20;;;;;;5064005;28;20518;-61
2021/07/27 02:20:54;;;;;;;1.20;0.70;;;24.80;62.20;;;;;;5064082;28;20388;-60
2021/07/27 02:23:20;;;;;;;1.30;0.80;;;24.80;62.30;;;;;;5064051;28;20414;-60
2021/07/27 02:25:46;;;;;;;1.20;0.60;;;24.80;62.20;;;;;;5064028;28;20395;-60
2021/07/27 02:28:15;;;;;;;1.05;0.60;;;24.80;62.20;;;;;;5064319;28;20957;-60
2021/07/27 02:30:52;;;;;;;0.95;0.60;;;24.80;62.20;;;;;;5063982;28;20883;-60
2021/07/27 02:33:22;;;;;;;1.30;0.75;;;24.80;62.20;;;;;;5053406;28;20474;-60
2021/07/27 02:35:48;;;;;;;1.08;0.60;;;24.80;62.20;;;;;;5063765;28;20403;-60
2021/07/27 02:38:15;;;;;;;1.60;0.60;;;24.70;62.20;;;;;;5064208;28;20414;-61
2021/07/27 02:40:41;;;;;;;1.00;0.70;;;24.80;62.20;;;;;;5063379;28;20809;-62
2021/07/27 02:43:07;;;;;;;1.45;0.73;;;24.80;62.20;;;;;;5062966;28;20394;-60
2021/07/27 02:45:33;;;;;;;1.00;0.70;;;24.70;62.20;;;;;;5062669;28;20384;-60
2021/07/27 02:47:58;;;;;;;1.40;0.68;;;24.80;62.20;;;;;;5062775;28;20391;-67
2021/07/27 02:50:28;;;;;;;1.10;0.70;;;24.70;62.20;;;;;;5063556;28;20384;-60
2021/07/27 02:52:53;;;;;;;1.30;0.60;;;24.70;62.20;;;;;;5063153;28;20387;-60
2021/07/27 02:55:19;;;;;;;1.10;0.70;;;24.70;62.20;;;;;;5062770;28;20759;-60
2021/07/27 02:57:48;;;;;;;0.98;0.50;;;24.70;62.20;;;;;;5062961;28;20391;-61
2021/07/27 03:00:14;;;;;;;1.38;0.60;;;24.70;62.20;;;;;;5062621;28;20418;-60
2021/07/27 03:02:44;;;;;;;1.00;0.60;;;24.70;62.20;;;;;;5062812;28;20437;-61
2021/07/27 03:05:14;;;;;;;2.47;0.77;;;24.70;62.20;;;;;;5045814;28;20396;-61
2021/07/27 03:10:17;;;;;;;1.70;0.70;;;24.70;62.30;;;;;;5063469;28;20413;-61
2021/07/27 03:12:49;;;;;;;1.60;0.73;;;24.70;62.50;;;;;;5063444;28;20388;-60
2021/07/27 03:15:16;;;;;;;1.30;0.60;;;24.70;62.70;;;;;;5063357;28;20579;-60
2021/07/27 03:17:42;;;;;;;2.00;1.07;;;24.70;62.50;;;;;;5062196;28;21627;-61
2021/07/27 03:20:14;;;;;;;1.40;0.90;;;24.70;63.80;;;;;;5061206;28;20451;-61
2021/07/27 03:22:41;;;;;;;3.00;0.70;;;24.70;63.50;;;;;;5061942;28;20431;-61
2021/07/27 03:25:07;;;;;;;2.70;0.90;;;24.80;63.90;;;;;;5061853;28;20390;-61
2021/07/27 03:27:35;;;;;;;1.63;0.80;;;24.80;64.50;;;;;;5062158;28;20418;-61
2021/07/27 03:30:00;;;;;;;2.33;0.80;;;24.80;66.00;;;;;;5062383;28;20390;-61
2021/07/27 03:32:26;;;;;;;1.58;0.82;;;24.90;65.90;;;;;;5062628;28;20376;-61
2021/07/27 03:34:51;;;;;;;1.47;0.90;;;24.90;66.00;;;;;;5062161;28;20391;-61
2021/07/27 03:37:17;;;;;;;1.77;0.70;;;24.90;66.00;;;;;;5062447;28;20384;-61
2021/07/27 03:39:46;;;;;;;1.70;0.80;;;24.90;65.40;;;;;;5061257;28;20442;-61
2021/07/27 03:42:12;;;;;;;2.03;0.98;;;24.90;65.50;;;;;;5062260;28;20437;-62
2021/07/27 03:44:37;;;;;;;2.37;1.33;;;24.90;66.20;;;;;;5062702;28;20915;-62
2021/07/27 03:47:03;;;;;;;3.63;1.40;;;25.00;65.50;;;;;;5062691;28;20384;-61
2021/07/27 03:49:29;;;;;;;4.07;1.10;;;25.00;65.50;;;;;;5062643;28;20396;-61
2021/07/27 03:51:59;;;;;;;3.22;1.10;;;25.00;65.10;;;;;;5061541;28;20387;-61
2021/07/27 03:54:28;;;;;;;3.00;1.15;;;24.90;65.00;;;;;;5062090;28;20438;-61
2021/07/27 03:56:54;;;;;;;4.00;1.05;;;24.90;63.60;;;;;;5061254;28;20484;-61
2021/07/27 03:59:20;;;;;;;3.88;1.00;;;24.80;63.30;;;;;;5050906;28;20535;-61
2021/07/27 04:01:46;;;;;;;3.80;1.17;;;24.80;63.20;;;;;;5061787;28;20483;-62
2021/07/27 04:04:11;;;;;;;2.45;1.00;;;24.70;62.70;;;;;;5062353;28;20742;-61
2021/07/27 04:06:37;;;;;;;3.58;1.00;;;24.70;61.90;;;;;;5062306;28;20902;-61
2021/07/27 04:09:03;;;;;;;4.05;1.10;;;24.70;62.40;;;;;;5062183;28;20486;-62
2021/07/27 04:11:29;;;;;;;4.10;1.20;;;24.70;62.20;;;;;;5062333;28;20502;-63
2021/07/27 04:13:55;;;;;;;5.23;1.10;;;24.70;62.10;;;;;;5061717;28;20825;-69
2021/07/27 04:16:20;;;;;;;4.20;1.10;;;24.70;61.80;;;;;;5062350;28;20516;-68
2021/07/27 04:18:49;;;;;;;3.85;1.02;;;24.70;61.80;;;;;;5061926;28;20430;-67
2021/07/27 04:21:14;;;;;;;4.45;1.20;;;24.70;61.80;;;;;;5062288;28;20391;-64
2021/07/27 04:23:40;;;;;;;3.77;1.10;;;24.70;61.60;;;;;;5062199;28;20744;-69
2021/07/27 04:26:05;;;;;;;4.18;1.00;;;24.70;61.80;;;;;;5061295;28;20419;-69
2021/07/27 04:28:31;;;;;;;2.50;0.90;;;24.60;61.70;;;;;;5062088;28;20395;-62
2021/07/27 04:30:57;;;;;;;2.05;0.73;;;24.70;61.80;;;;;;5061635;28;20411;-66
2021/07/27 04:33:26;;;;;;;4.07;1.07;;;24.70;61.80;;;;;;5055133;28;20430;-63
2021/07/27 04:35:53;;;;;;;1.80;0.80;;;24.70;61.80;;;;;;5059888;28;20395;-63
2021/07/27 04:38:20;;;;;;;3.38;1.00;;;24.60;61.90;;;;;;5061692;28;20387;-63
2021/07/27 04:40:45;;;;;;;2.05;0.90;;;24.60;61.80;;;;;;5061500;28;20395;-64
2021/07/27 04:43:14;;;;;;;3.25;0.98;;;24.70;61.90;;;;;;5061753;28;20794;-69
2021/07/27 04:45:40;;;;;;;2.72;0.90;;;24.60;61.90;;;;;;5061058;28;20404;-66
2021/07/27 04:48:05;;;;;;;2.67;0.90;;;24.70;62.00;;;;;;5045512;28;20879;-62
2021/07/27 04:50:31;;;;;;;1.83;0.70;;;24.60;62.00;;;;;;5061991;28;20407;-63
2021/07/27 04:52:59;;;;;;;1.50;0.70;;;24.60;61.90;;;;;;5061179;28;20420;-62
2021/07/27 04:55:25;;;;;;;1.55;0.85;;;24.60;61.90;;;;;;5062054;28;20487;-70
2021/07/27 04:57:51;;;;;;;3.30;0.90;;;24.60;62.00;;;;;;5060687;28;20813;-67
2021/07/27 05:00:26;;;;;;;1.50;0.80;;;24.60;62.00;;;;;;5061707;28;20492;-68
2021/07/27 05:02:52;;;;;;;1.60;0.85;;;24.60;62.00;;;;;;5060990;28;20408;-69
2021/07/27 05:05:18;;;;;;;2.03;0.90;;;24.60;62.10;;;;;;5061099;28;20403;-68
2021/07/27 05:07:45;;;;;;;1.35;0.73;;;24.60;62.00;;;;;;5061033;28;20391;-68
2021/07/27 05:10:12;;;;;;;2.33;1.10;;;24.60;62.10;;;;;;5061129;28;20392;-67
2021/07/27 05:12:38;;;;;;;1.57;0.90;;;24.60;62.10;;;;;;5061149;28;20392;-65
2021/07/27 05:15:05;;;;;;;1.70;0.90;;;24.60;62.10;;;;;;5061550;28;20388;-68
2021/07/27 05:17:31;;;;;;;1.65;1.00;;;24.60;62.10;;;;;;5061037;28;20403;-62
2021/07/27 05:19:57;;;;;;;1.80;0.93;;;24.60;62.20;;;;;;5061020;28;20494;-62
2021/07/27 05:22:25;;;;;;;1.42;0.70;;;24.60;62.20;;;;;;5060902;28;20860;-68
2021/07/27 05:24:54;;;;;;;1.40;0.80;;;24.60;62.20;;;;;;5061280;28;20604;-61
2021/07/27 05:27:22;;;;;;;1.50;0.90;;;24.60;62.20;;;;;;5060703;28;20865;-64
2021/07/27 05:29:57;;;;;;;1.30;0.90;;;24.60;62.20;;;;;;5052182;28;20910;-63
2021/07/27 05:32:23;;;;;;;1.70;0.80;;;24.60;62.20;;;;;;5060759;28;20543;-68
2021/07/27 05:34:49;;;;;;;1.73;0.70;;;24.60;62.20;;;;;;5061496;28;20876;-62
2021/07/27 05:37:16;;;;;;;3.53;1.07;;;24.60;62.30;;;;;;5061471;28;20406;-68
2021/07/27 05:39:42;;;;;;;1.50;1.17;;;24.60;62.20;;;;;;5064244;28;20472;-68
2021/07/27 05:42:07;;;;;;;1.48;0.90;;;24.60;62.20;;;;;;5064443;28;20739;-68
2021/07/27 05:44:33;;;;;;;1.30;0.90;;;24.60;62.20;;;;;;5064241;28;20384;-63
2021/07/27 05:47:02;;;;;;;2.07;0.90;;;24.60;62.30;;;;;;5064343;28;20575;-66
2021/07/27 05:49:28;;;;;;;1.58;0.80;;;24.60;62.20;;;;;;5064786;28;20387;-65
2021/07/27 05:51:54;;;;;;;2.17;0.93;;;24.60;62.20;;;;;;5064118;28;20395;-65
2021/07/27 05:54:21;;;;;;;1.98;0.90;;;24.60;62.20;;;;;;5064428;28;21424;-61
2021/07/27 05:56:47;;;;;;;1.40;0.70;;;24.60;62.20;;;;;;5064546;28;20383;-68
2021/07/27 05:59:16;;;;;;;2.10;0.80;;;24.60;62.20;;;;;;5064214;28;20995;-62
2021/07/27 06:01:42;;;;;;;1.25;0.70;;;24.60;62.30;;;;;;5062720;28;20420;-66
2021/07/27 06:04:09;;;;;;;1.70;0.80;;;24.60;62.20;;;;;;5061120;28;20431;-68
2021/07/27 06:06:34;;;;;;;1.20;0.80;;;24.60;62.20;;;;;;5061641;28;20774;-62
2021/07/27 06:09:03;;;;;;;1.20;0.80;;;24.60;62.20;;;;;;5064545;28;20399;-70
2021/07/27 06:11:30;;;;;;;1.17;0.80;;;24.60;62.20;;;;;;5064132;28;20380;-68
2021/07/27 06:13:56;;;;;;;1.10;0.80;;;24.60;62.20;;;;;;5063284;28;20392;-64
2021/07/27 06:16:22;;;;;;;1.40;0.90;;;24.60;62.30;;;;;;5064037;28;20395;-67
2021/07/27 06:18:48;;;;;;;1.67;1.00;;;24.60;62.30;;;;;;5056737;28;20423;-62
2021/07/27 06:21:14;;;;;;;2.40;1.10;;;24.60;62.20;;;;;;5063618;28;20397;-62
2021/07/27 06:23:40;;;;;;;2.03;1.15;;;24.60;62.30;;;;;;5063282;28;20471;-67
2021/07/27 06:26:07;;;;;;;2.65;1.10;;;24.60;62.20;;;;;;5063489;28;20392;-66
2021/07/27 06:28:34;;;;;;;1.60;1.00;;;24.60;62.20;;;;;;5062886;28;20419;-62
2021/07/27 06:31:03;;;;;;;1.23;0.90;;;24.60;62.20;;;;;;5063017;28;20527;-65
2021/07/27 06:33:29;;;;;;;1.20;0.82;;;24.60;62.10;;;;;;5064109;28;20384;-66
2021/07/27 06:35:58;;;;;;;1.70;0.90;;;24.60;62.10;;;;;;5062917;28;20391;-61
2021/07/27 06:38:25;;;;;;;2.20;0.90;;;24.60;62.10;;;;;;5062717;28;20406;-62
2021/07/27 06:40:52;;;;;;;1.70;0.90;;;24.60;62.10;;;;;;5063323;28;20403;-63
2021/07/27 06:43:17;;;;;;;1.58;0.88;;;24.60;62.10;;;;;;5062851;28;20883;-62
2021/07/27 06:45:50;;;;;;;1.53;0.80;;;24.60;62.00;;;;;;5062815;28;20464;-62
2021/07/27 06:48:17;;;;;;;1.70;0.90;;;24.60;62.10;;;;;;5062505;28;20384;-62
2021/07/27 06:50:42;;;;;;;1.50;0.90;;;24.60;62.00;;;;;;5062610;28;21516;-62
2021/07/27 06:53:08;;;;;;;1.20;0.80;;;24.60;62.00;;;;;;5063021;28;20383;-65
2021/07/27 06:55:34;;;;;;;1.20;0.70;;;24.60;62.00;;;;;;5063185;28;20384;-62
2021/07/27 06:58:00;;;;;;;1.23;0.90;;;24.60;61.90;;;;;;5062546;28;20387;-62
2021/07/27 07:00:25;;;;;;;1.70;0.80;;;24.60;61.90;;;;;;5063003;28;20429;-62
2021/07/27 07:02:51;;;;;;;1.30;1.00;;;24.60;61.90;;;;;;5062358;28;20409;-63
2021/07/27 07:05:17;;;;;;;1.33;0.90;;;24.60;61.90;;;;;;5063417;28;20721;-62
2021/07/27 07:07:42;;;;;;;1.70;0.90;;;24.60;62.00;;;;;;5062830;28;20399;-62
2021/07/27 07:10:08;;;;;;;1.10;0.80;;;24.60;61.90;;;;;;5061673;28;21282;-62
2021/07/27 07:12:34;;;;;;;1.40;1.00;;;24.60;62.00;;;;;;5062713;28;20380;-62
2021/07/27 07:15:00;;;;;;;1.70;0.97;;;24.60;62.00;;;;;;5062164;28;20429;-63
2021/07/27 07:17:26;;;;;;;1.38;0.90;;;24.60;61.90;;;;;;5062506;28;20415;-62
2021/07/27 07:19:52;;;;;;;1.15;0.88;;;24.60;61.90;;;;;;5061816;28;20828;-62
2021/07/27 07:22:20;;;;;;;1.50;0.90;;;24.60;61.90;;;;;;5063074;28;20395;-63
2021/07/27 07:24:46;;;;;;;1.60;0.90;;;24.60;61.90;;;;;;5062995;28;20472;-66
2021/07/27 07:27:13;;;;;;;1.30;0.88;;;24.60;61.90;;;;;;5062352;28;20387;-63
2021/07/27 07:29:39;;;;;;;1.45;1.00;;;24.60;61.90;;;;;;5061561;28;20399;-63
2021/07/27 07:32:06;;;;;;;1.30;0.90;;;24.60;61.90;;;;;;5061781;28;20410;-69
2021/07/27 07:34:33;;;;;;;1.40;0.80;;;24.60;61.90;;;;;;5062474;28;20926;-67
2021/07/27 07:37:00;;;;;;;1.25;0.90;;;24.60;61.80;;;;;;5062443;28;20473;-62
2021/07/27 07:39:29;;;;;;;1.23;0.88;;;24.60;61.80;;;;;;5062979;28;20768;-63
2021/07/27 07:41:55;;;;;;;1.40;0.90;;;24.60;61.80;;;;;;5061872;28;20970;-62
2021/07/27 07:44:22;;;;;;;1.20;0.82;;;24.60;61.80;;;;;;5061949;28;20402;-62
2021/07/27 07:46:49;;;;;;;1.50;0.85;;;24.60;61.70;;;;;;5062302;28;20384;-64
2021/07/27 07:49:15;;;;;;;1.88;0.80;;;24.60;61.80;;;;;;5062146;28;20506;-69
2021/07/27 07:51:46;;;;;;;1.77;0.90;;;24.60;61.80;;;;;;5062276;28;20661;-66
2021/07/27 07:54:12;;;;;;;1.17;0.80;;;24.60;61.80;;;;;;5061933;28;20387;-64
2021/07/27 07:56:42;;;;;;;1.30;0.90;;;24.60;61.80;;;;;;5060079;28;20883;-63
2021/07/27 07:59:10;;;;;;;1.10;0.70;;;24.60;61.80;;;;;;5060847;28;20776;-66
2021/07/27 08:01:36;;;;;;;1.20;0.80;;;24.60;61.80;;;;;;5059305;28;20412;-67
2021/07/27 08:04:02;;;;;;;1.10;0.80;;;24.60;61.80;;;;;;5062219;28;20392;-63
2021/07/27 08:06:29;;;;;;;1.23;0.98;;;24.60;61.80;;;;;;5062877;28;20380;-69
2021/07/27 08:08:55;;;;;;;1.33;1.02;;;24.60;61.80;;;;;;5061988;28;20401;-63
2021/07/27 08:11:21;;;;;;;1.42;0.98;;;24.60;61.80;;;;;;5062473;28;20693;-62
2021/07/27 08:13:47;;;;;;;1.20;0.80;;;24.60;61.80;;;;;;5061573;28;21028;-62
2021/07/27 08:16:13;;;;;;;1.20;0.80;;;24.60;61.70;;;;;;5062236;28;20411;-62
2021/07/27 08:18:39;;;;;;;1.50;0.80;;;24.60;61.70;;;;;;5062622;28;20415;-67
2021/07/27 08:21:06;;;;;;;1.02;0.70;;;24.60;61.70;;;;;;5061226;28;20899;-64
2021/07/27 08:23:32;;;;;;;1.43;0.90;;;24.60;61.70;;;;;;5062654;28;20395;-62
2021/07/27 08:25:59;;;;;;;1.42;0.93;;;24.60;61.70;;;;;;5062071;28;20388;-68
2021/07/27 08:28:26;;;;;;;1.60;0.80;;;24.60;61.60;;;;;;5062851;28;20400;-64
2021/07/27 08:30:51;;;;;;;1.30;0.90;;;24.60;61.70;;;;;;5062196;28;20426;-63
2021/07/27 08:33:20;;;;;;;1.35;0.80;;;24.60;61.60;;;;;;5062951;28;20874;-67
2021/07/27 08:35:46;;;;;;;1.30;0.90;;;24.60;61.70;;;;;;5063222;28;20943;-68
2021/07/27 08:38:13;;;;;;;1.20;0.90;;;24.60;61.60;;;;;;5062660;28;20433;-67
2021/07/27 08:40:39;;;;;;;1.30;0.90;;;24.60;61.60;;;;;;5062479;28;20510;-61
2021/07/27 08:43:07;;;;;;;1.48;1.00;;;24.60;61.70;;;;;;5062307;28;20449;-61
2021/07/27 08:45:33;;;;;;;1.30;0.90;;;24.60;61.60;;;;;;5061560;28;20399;-66
2021/07/27 08:48:00;;;;;;;1.20;0.80;;;24.60;61.60;;;;;;5061446;28;20403;-63
2021/07/27 08:50:26;;;;;;;1.40;1.00;;;24.60;61.60;;;;;;5062229;28;20471;-65
2021/07/27 08:52:53;;;;;;;1.33;0.80;;;24.60;61.60;;;;;;5062445;28;20439;-67
2021/07/27 08:55:19;;;;;;;1.27;0.90;;;24.60;61.60;;;;;;5063028;28;20405;-61
2021/07/27 08:57:58;;;;;;;1.50;0.93;;;24.60;61.60;;;;;;5062600;28;20379;-66
2021/07/27 09:00:24;;;;;;;1.30;0.82;;;24.60;61.50;;;;;;5062609;28;20427;-61
2021/07/27 09:02:50;;;;;;;1.58;1.02;;;24.60;61.50;;;;;;5062491;28;20384;-66
2021/07/27 09:05:16;;;;;;;1.17;0.80;;;24.60;61.50;;;;;;5061944;28;20396;-65
2021/07/27 09:07:42;;;;;;;1.33;1.00;;;24.60;61.50;;;;;;5062644;28;20403;-67
2021/07/27 09:10:15;;;;;;;1.20;0.85;;;24.60;61.50;;;;;;5062493;28;20445;-65
2021/07/27 09:13:01;;;;;;;1.60;1.00;;;24.60;61.50;;;;;;5064021;28;20383;-63
2021/07/27 09:15:46;;;;;;;1.30;0.90;;;24.60;61.50;;;;;;5065823;28;20403;-65
2021/07/27 09:18:21;;;;;;;1.70;0.98;;;24.60;61.50;;;;;;5063860;28;20408;-61
2021/07/27 09:20:47;;;;;;;1.55;0.90;;;24.60;61.50;;;;;;5066032;28;20958;-62
2021/07/27 09:23:18;;;;;;;1.30;0.90;;;24.60;61.50;;;;;;5065887;28;20391;-60
2021/07/27 09:25:49;;;;;;;1.65;0.98;;;24.60;61.50;;;;;;5065695;28;20402;-61
2021/07/27 09:28:17;;;;;;;1.35;0.90;;;24.60;61.50;;;;;;5063596;28;20848;-68
2021/07/27 09:30:44;;;;;;;1.20;0.90;;;24.60;61.50;;;;;;5054199;28;20482;-66
2021/07/27 09:33:12;;;;;;;1.60;0.97;;;24.60;61.50;;;;;;5050856;28;20395;-67
2021/07/27 09:35:39;;;;;;;1.30;0.93;;;24.60;61.50;;;;;;5097332;28;20400;-64
2021/07/27 09:38:19;;;;;;;1.33;0.90;;;24.60;61.50;;;;;;5064432;28;20496;-65
2021/07/27 09:40:56;;;;;;;1.40;0.90;;;24.60;61.50;;;;;;5064934;28;20515;-64
2021/07/27 09:43:24;;;;;;;1.23;0.82;;;24.60;61.50;;;;;;5064734;28;20943;-67
2021/07/27 09:45:52;;;;;;;1.30;0.87;;;24.60;61.40;;;;;;5065307;28;20570;-68
2021/07/27 09:48:18;;;;;;;1.35;0.90;;;24.60;61.50;;;;;;5096724;28;20406;-67
2021/07/27 09:50:46;;;;;;;1.23;0.93;;;24.60;61.40;;;;;;5064919;28;20725;-62
2021/07/27 09:53:12;;;;;;;1.15;0.80;;;24.60;61.40;;;;;;5065454;28;20468;-64
2021/07/27 09:55:39;;;;;;;1.50;0.90;;;24.60;61.40;;;;;;5064603;28;20384;-63
2021/07/27 09:58:04;;;;;;;1.15;0.80;;;24.60;61.40;;;;;;5064059;28;20721;-64
2021/07/27 10:00:31;;;;;;;1.33;0.98;;;24.60;61.40;;;;;;5064771;28;20420;-68
2021/07/27 10:02:58;;;;;;;1.17;0.82;;;24.60;61.40;;;;;;5063989;28;20946;-66
2021/07/27 10:05:26;;;;;;;1.80;1.00;;;24.60;61.40;;;;;;5064964;28;20391;-68
2021/07/27 10:07:58;;;;;;;1.30;0.90;;;24.60;61.40;;;;;;5064933;28;20556;-68
2021/07/27 10:11:04;;;;;;;1.40;1.10;;;24.60;61.40;;;;;;5064626;28;20392;-67
2021/07/27 10:13:33;;;;;;;1.30;1.00;;;24.60;61.40;;;;;;5058381;28;20410;-63
2021/07/27 10:15:59;;;;;;;1.42;1.00;;;24.60;61.40;;;;;;5064276;28;20419;-61
2021/07/27 10:18:31;;;;;;;1.50;1.00;;;24.60;61.40;;;;;;5064211;28;20448;-63
2021/07/27 10:21:25;;;;;;;1.70;1.00;;;24.60;61.40;;;;;;5064401;28;20517;-67
2021/07/27 10:24:12;;;;;;;1.30;0.90;;;24.60;61.40;;;;;;5062261;28;20396;-62
2021/07/27 10:26:38;;;;;;;1.55;1.10;;;24.60;61.40;;;;;;5064940;28;20759;-66
2021/07/27 10:29:04;;;;;;;1.40;0.90;;;24.60;61.40;;;;;;5063759;28;20395;-66
2021/07/27 10:31:41;;;;;;;1.30;0.90;;;24.60;61.40;;;;;;5065364;28;20395;-63
2021/07/27 10:34:09;;;;;;;1.23;0.82;;;24.60;61.50;;;;;;5063643;28;20721;-64
2021/07/27 10:36:36;;;;;;;1.10;0.90;;;24.60;61.50;;;;;;5062896;28;20418;-61
2021/07/27 10:39:13;;;;;;;1.50;1.00;;;24.60;61.50;;;;;;5062324;28;20415;-61
2021/07/27 10:41:42;;;;;;;1.23;0.80;;;24.60;61.50;;;;;;5062605;28;20473;-61
2021/07/27 10:44:10;;;;;;;6.30;1.10;;;24.60;61.40;;;;;;5062820;28;20466;-60
2021/07/27 10:46:38;;;;;;;3.65;1.20;;;24.60;61.50;;;;;;5063215;28;21101;-65
2021/07/27 10:49:04;;;;;;;1.50;1.02;;;24.60;61.60;;;;;;5049453;28;20398;-61
2021/07/27 10:51:35;;;;;;;4.22;1.13;;;24.60;61.50;;;;;;5062467;28;20399;-61
2021/07/27 10:54:04;;;;;;;2.55;1.05;;;24.60;61.50;;;;;;5062455;28;20648;-61
2021/07/27 10:56:31;;;;;;;1.58;1.02;;;24.60;61.40;;;;;;5061271;28;20399;-61
2021/07/27 10:58:58;;;;;;;2.70;0.90;;;24.60;61.40;;;;;;5063545;28;20407;-61
2021/07/27 11:01:30;;;;;;;2.50;1.00;;;24.60;61.40;;;;;;5063606;28;20876;-61
2021/07/27 11:04:10;;;;;;;2.17;1.08;;;24.70;61.50;;;;;;5062251;28;20392;-61
2021/07/27 11:06:37;;;;;;;1.95;1.00;;;24.60;61.50;;;;;;5063675;28;20496;-61
2021/07/27 11:09:03;;;;;;;1.48;1.00;;;24.70;61.50;;;;;;5063351;28;20419;-61
2021/07/27 11:11:29;;;;;;;1.80;1.20;;;24.70;61.50;;;;;;5063097;28;20439;-61
2021/07/27 11:13:55;;;;;;;1.50;1.08;;;24.70;61.50;;;;;;5063099;28;20856;-61
2021/07/27 11:16:20;;;;;;;2.13;1.00;;;24.70;61.50;;;;;;5062548;28;20388;-61
2021/07/27 11:18:46;;;;;;;2.10;1.00;;;24.70;61.40;;;;;;5062775;28;20426;-61
2021/07/27 11:21:13;;;;;;;2.20;1.10;;;24.70;61.40;;;;;;5063029;28;20402;-61
2021/07/27 11:23:40;;;;;;;1.75;0.90;;;24.70;61.40;;;;;;5063468;28;20426;-60
2021/07/27 11:26:06;;;;;;;1.88;0.90;;;24.70;61.40;;;;;;5062703;28;20797;-61
2021/07/27 11:28:40;;;;;;;1.80;1.08;;;24.70;61.40;;;;;;5063071;28;20825;-61
2021/07/27 11:31:21;;;;;;;1.85;1.00;;;24.70;61.40;;;;;;5063119;28;20383;-60
2021/07/27 11:33:51;;;;;;;2.53;1.00;;;24.70;61.40;;;;;;5063022;28;20434;-61
2021/07/27 11:36:24;;;;;;;2.00;1.20;;;24.70;61.40;;;;;;5061553;28;20808;-61
2021/07/27 11:38:50;;;;;;;1.52;0.93;;;24.70;61.40;;;;;;5062762;28;20435;-61
2021/07/27 11:41:18;;;;;;;2.03;1.10;;;24.70;61.30;;;;;;5062876;28;20930;-61
2021/07/27 11:43:46;;;;;;;1.60;1.10;;;24.70;61.30;;;;;;5062850;28;20891;-61
2021/07/27 11:46:16;;;;;;;1.98;1.05;;;24.80;61.40;;;;;;5061943;28;20414;-60
2021/07/27 11:48:43;;;;;;;2.03;1.20;;;24.80;61.40;;;;;;5062745;28;20754;-61
2021/07/27 11:51:09;;;;;;;5.60;1.10;;;24.80;61.70;;;;;;5063773;28;20395;-62
2021/07/27 11:53:44;;;;;;;2.83;1.20;;;24.80;61.60;;;;;;5062348;28;20384;-65
2021/07/27 11:56:11;;;;;;;2.88;1.10;;;24.80;61.60;;;;;;5061541;28;20403;-62
2021/07/27 11:58:36;;;;;;;1.60;1.00;;;24.80;61.70;;;;;;5062298;28;20395;-61
2021/07/27 12:01:02;;;;;;;2.13;1.25;;;24.80;62.20;;;;;;5062441;28;20399;-61
2021/07/27 12:03:28;;;;;;;1.70;1.10;;;24.80;62.20;;;;;;5062460;28;20386;-62
2021/07/27 12:05:56;;;;;;;2.90;1.27;;;24.80;62.30;;;;;;5062556;28;20804;-61
2021/07/27 12:08:22;;;;;;;2.70;1.30;;;24.80;62.20;;;;;;5061572;28;20387;-62
2021/07/27 12:10:48;;;;;;;2.35;1.35;;;24.90;62.30;;;;;;5062512;28;20411;-62
2021/07/27 12:13:14;;;;;;;1.60;1.10;;;24.90;62.30;;;;;;5062552;28;20415;-62
2021/07/27 12:15:40;;;;;;;1.92;1.20;;;24.90;62.30;;;;;;5062702;28;20392;-62
2021/07/27 12:18:05;;;;;;;2.43;1.50;;;24.90;62.20;;;;;;5061285;28;20415;-62
2021/07/27 12:20:31;;;;;;;1.70;1.20;;;24.90;62.10;;;;;;5062148;28;21094;-62
2021/07/27 12:22:57;;;;;;;2.73;1.30;;;24.90;62.10;;;;;;5060678;28;20384;-61
2021/07/27 12:25:22;;;;;;;1.98;1.40;;;24.90;62.00;;;;;;5053698;28;20759;-59
2021/07/27 12:27:48;;;;;;;2.67;1.20;;;24.90;62.00;;;;;;5062218;28;20383;-59
2021/07/27 12:30:14;;;;;;;1.70;1.10;;;24.90;62.10;;;;;;5052973;28;20396;-61
2021/07/27 12:32:39;;;;;;;1.83;1.20;;;25.70;62.30;;;;;;5062026;28;20387;-62
2021/07/27 12:35:06;;;;;;;2.03;1.20;;;26.20;60.60;;;;;;5062105;28;21306;-62
2021/07/27 12:37:35;;;;;;;3.60;1.20;;;26.50;59.60;;;;;;5061635;28;20391;-62
2021/07/27 12:40:03;;;;;;;2.30;1.30;;;26.70;58.70;;;;;;5061245;28;20896;-62
2021/07/27 12:42:28;;;;;;;1.48;1.17;;;26.70;58.40;;;;;;5060526;28;20504;-62
2021/07/27 12:44:54;;;;;;;2.40;1.30;;;26.80;57.90;;;;;;5054899;28;20752;-62
2021/07/27 12:47:19;;;;;;;1.65;1.17;;;26.90;57.70;;;;;;5063499;28;20506;-62
2021/07/27 12:49:45;;;;;;;1.63;1.05;;;26.80;57.70;;;;;;5066008;28;20508;-62
2021/07/27 12:52:11;;;;;;;1.80;1.30;;;26.90;57.60;;;;;;5064861;28;20475;-62
2021/07/27 12:54:40;;;;;;;1.70;1.20;;;26.90;57.60;;;;;;5066156;28;20484;-62
2021/07/27 12:57:06;;;;;;;1.80;1.20;;;27.00;57.20;;;;;;5065762;28;20388;-62
2021/07/27 12:59:32;;;;;;;1.60;1.02;;;27.00;57.10;;;;;;5065730;28;20460;-64
2021/07/27 13:01:58;;;;;;;1.90;1.20;;;27.00;57.30;;;;;;5065696;28;20396;-62
2021/07/27 13:04:24;;;;;;;1.70;1.10;;;27.00;57.30;;;;;;5065623;28;20383;-63
2021/07/27 13:06:50;;;;;;;1.65;1.17;;;26.90;57.40;;;;;;5065760;28;20395;-62
2021/07/27 13:09:15;;;;;;;2.78;1.30;;;26.90;57.40;;;;;;5065983;28;20878;-63
2021/07/27 13:11:41;;;;;;;1.50;1.20;;;26.80;57.30;;;;;;5065731;28;20379;-63
2021/07/27 13:14:07;;;;;;;2.20;1.30;;;26.90;57.20;;;;;;5065695;28;20392;-63
2021/07/27 13:16:36;;;;;;;2.30;1.20;;;26.80;57.20;;;;;;5065796;28;20846;-63